OMEGA LAV

INFORMACIÓN METAR y TAF
METAR FOR LEGR
ADDS - METARS form results

(2349 UTC 10 December 2018)
Data provider http://aviationweather.gov/metar/data/
 
METAR text: LEGR 102330Z AUTO 00000KT 9999 NCD 05/04 Q1026
Conditions at: LEGR (GRANADA AIRPORT , ES) observed 2330 UTC 10 December 2018
Temperature: 5.0°C (41°F)
Dewpoint: 4.0°C (39°F) [RH = 93%]
Pressure (altimeter): 30.30 inches Hg (1026.0 mb)
Winds: calm
Visibility: 6 or more miles (10+ km)
Ceiling: at least 12,000 feet AGL
Clouds: sky clear below 12,000 feet AGL
Weather: no significant weather observed at this time

METAR text: LEGR 102300Z AUTO 00000KT 9999 NCD 05/04 Q1026
Conditions at: LEGR (GRANADA AIRPORT , ES) observed 2300 UTC 10 December 2018
Temperature: 5.0°C (41°F)
Dewpoint: 4.0°C (39°F) [RH = 93%]
Pressure (altimeter): 30.30 inches Hg (1026.0 mb)
Winds: calm
Visibility: 6 or more miles (10+ km)
Ceiling: at least 12,000 feet AGL
Clouds: sky clear below 12,000 feet AGL
Weather: no significant weather observed at this time

Forecast for: LEGR (GRANADA AIRPORT , ES)
Text: TAF LEGR 102000Z 1021/1121 VRB03KT CAVOK TX19/1115Z TNM00/1107Z
Forecast period: 2100 UTC 10 December 2018 to 2100 UTC 11 December 2018
Forecast type: FROM: standard forecast or significant change
Winds: variable direction winds at 3 MPH (3 knots; 1.5 m/s)
Visibility: 6 or more miles 10+ km)
Ceiling: unknown
Clouds: missing
Weather: no significant weather forecast for this period
Text: TEMPO 1114/1118 28010KT
Forecast period: 1400 to 1800 UTC 11 December 2018
Forecast type: TEMPORARY: The following changes expected for less than half the time period
Winds: from the W (280 degrees) at 12 MPH (10 knots; 5.1 m/s)
Visibility: missing
Ceiling: unknown
Clouds: missing
Weather: no significant weather forecast for this period

MAPA DE AEROPUERTO

INFORMACIÓN DE PISTA
Pista 09 Longitud 9514 ft Ancho 148 ft
Elevación 1842 ft Umbral desplazado 0 ft Rumbo de pista 90
Pista 27 Longitud 9514 ft Ancho 148 ft
Elevación 1860 ft Umbral desplazado 0 ft Rumbo de pista 270

FRECUANCIAS DEL AEROPUERTO
Tipo GND Nombre GND Frecuencia 121.7 MHZ
Tipo TWR Nombre TWR Frecuencia 118.85 MHZ

RADIO AYUDAS DEL AEROPUERTO
Tipo VOR-DME Nombre Granada Frecuencia 113400 KHZ


Normativa | Powered by VAM 2.5.1 | Customized by Aisa © 2018